Terminal Aerodrome Forecast
Issued by NWS

Home | Current Version | Previous Version | Text Only | Print | Product List | Glossary On
Versions: 1 2 3 4 5 6 7 8 9 10 11 12 13 14 15
000
FTUS46 KSEW 250520
TAFBLI
TAF
KBLI 250520Z 2506/2606 17015G25KT P6SM -RA BKN030 OVC050
      TEMPO 2506/2508 BKN025
     FM250800 16018G24KT P6SM -RA OVC025
     FM251000 18015G22KT P6SM -RA OVC020
     FM252200 19011G18KT P6SM VCSH SCT020 BKN035=

USA.gov is the U.S. government's official web portal to all federal, state and local government web resources and services.